EEKE

Kuressaare Airport

Kuressaare, Estonia
METAR EEKE 140350Z AUTO 27003KT 230V320 7000NDV OVC008 07/07 Q1017
Observed Flight Rules
Nov-14 @ 03:50 UTC (58 minutes ago)
Wind Clouds
270° at 3 knots
  • Overcast at 800' AGL
Temperatures Readings
Current 7°C / 45°F
Dewpoint 7°C / 45°F
Humidity 100%
Altimeter 30.03" Hg
Pressure 1017 hPa
Elevation 4
METAR EEKE 140350Z AUTO 27003KT 230V320 7000NDV OVC008 07/07 Q1017
Observed Flight Rules
Nov-14 @ 03:50 UTC
(58 minutes ago)
Wind
270° at 3 knots
Clouds
  • Overcast at 800' AGL
Temperature Dewpoint
7°C / 45°F 7°C / 45°F
Humidity Altimeter Pressure
100% 30.03" Hg 1017 hPa